Cloverly, Maryland
Current Conditions -  °F | °C
As of 9:50 PM on Thursday 27 Nov 2014 (Local Time) from KCGS Reporting Station
Overcast Overcast  
Wind Chill: 31°   Ceiling: 6000
Heat Index: 37°   Visibility: 10mi
Dew Point: 32°   Wind: 9mph
Humidity: 81%   Direction: 290°WNW
Pressure: 30.16"   Gusts: NA
Location:  39.066°N, 76.9783°W
Report Text: KCGS 280250Z AUTO 29008KT 10SM BKN060 OVC065 03/00 A3016 RMK AO1
Loading
Personal Weather Stations






























Interactive Weather Map New forecast layout! Learn more

10-Day Weather Forecast

Advertisements
Track Severe Weather on mobile